Time;durP1;ratioP1;P1;durP2;ratioP2;P2;SDS_P1;SDS_P2;PMS_P1;PMS_P2;Temp;Humidity;BMP_temperature;BMP_pressure;BME280_temperature;BME280_humidity;BME280_pressure;Samples;Min_cycle;Max_cycle;Signal;HPM_P1;HPM_P2
2021/06/07 00:00:29;;;;;;;4.70;3.35;;;14.10;99.90;;;;;;6154896;23;20005;-72
2021/06/07 00:02:55;;;;;;;4.32;3.47;;;14.20;99.90;;;;;;6154338;23;20422;-71
2021/06/07 00:05:23;;;;;;;5.75;3.40;;;14.10;99.90;;;;;;6154940;23;20029;-72
2021/06/07 00:07:48;;;;;;;3.67;3.28;;;14.10;99.90;;;;;;6154400;23;20025;-72
2021/06/07 00:10:16;;;;;;;3.38;3.08;;;14.00;99.90;;;;;;6154625;23;20006;-71
2021/06/07 00:12:42;;;;;;;4.80;3.67;;;14.00;99.90;;;;;;6154781;23;20009;-71
2021/06/07 00:15:12;;;;;;;4.03;3.38;;;14.10;99.90;;;;;;6154783;23;20013;-71
2021/06/07 00:17:38;;;;;;;4.90;3.47;;;14.10;99.90;;;;;;6154446;23;20066;-72
2021/06/07 00:20:15;;;;;;;5.00;4.18;;;14.00;99.90;;;;;;6154295;23;20002;-72
2021/06/07 00:22:41;;;;;;;3.42;3.13;;;14.00;99.90;;;;;;6154874;23;20028;-71
2021/06/07 00:25:09;;;;;;;4.88;3.90;;;13.90;99.90;;;;;;6154395;23;20419;-72
2021/06/07 00:27:35;;;;;;;6.43;3.70;;;13.90;99.90;;;;;;6154781;23;20005;-72
2021/06/07 00:30:01;;;;;;;5.22;4.10;;;13.90;99.90;;;;;;6154298;23;20303;-72
2021/06/07 00:32:26;;;;;;;5.40;3.78;;;13.90;99.90;;;;;;6154456;23;20007;-72
2021/06/07 00:34:52;;;;;;;4.95;3.92;;;13.80;99.90;;;;;;6154538;23;20326;-72
2021/06/07 00:37:18;;;;;;;7.20;4.07;;;13.80;99.90;;;;;;6154374;23;20450;-75
2021/06/07 00:39:45;;;;;;;4.30;3.90;;;13.80;99.90;;;;;;6154188;23;19997;-74
2021/06/07 00:42:11;;;;;;;4.78;4.25;;;13.80;99.90;;;;;;6154412;23;20326;-75
2021/06/07 00:44:39;;;;;;;5.68;3.90;;;13.70;99.90;;;;;;6154342;23;20052;-74
2021/06/07 00:47:05;;;;;;;4.93;3.72;;;13.80;99.90;;;;;;6154609;23;20045;-73
2021/06/07 00:49:30;;;;;;;4.90;3.75;;;13.70;99.90;;;;;;6154677;23;20005;-74
2021/06/07 00:51:56;;;;;;;6.20;4.38;;;13.70;99.90;;;;;;6154551;23;20580;-74
2021/06/07 00:54:22;;;;;;;5.10;4.60;;;13.60;99.90;;;;;;6154765;23;20012;-73
2021/06/07 00:56:48;;;;;;;5.30;4.15;;;13.50;99.90;;;;;;6154158;23;20460;-74
2021/06/07 00:59:14;;;;;;;8.00;3.97;;;13.50;99.90;;;;;;6154434;23;20016;-73
2021/06/07 01:01:40;;;;;;;4.60;4.00;;;13.50;99.90;;;;;;6154702;23;20012;-73
2021/06/07 01:04:06;;;;;;;4.88;4.07;;;13.50;99.90;;;;;;6154198;23;20405;-74
2021/06/07 01:06:32;;;;;;;4.55;4.15;;;13.50;99.90;;;;;;6154306;23;20005;-73
2021/06/07 01:08:58;;;;;;;6.57;4.25;;;13.50;99.90;;;;;;6154218;23;20005;-73
2021/06/07 01:45:07;;;;;;;4.60;4.20;;;13.30;99.90;;;;;;6157392;23;20456;-76
2021/06/07 01:47:33;;;;;;;6.43;3.90;;;13.30;99.90;;;;;;6184230;23;20340;-74
2021/06/07 01:49:58;;;;;;;4.25;3.85;;;13.30;99.90;;;;;;6184143;23;20005;-74
2021/06/07 01:52:24;;;;;;;5.32;4.00;;;13.20;99.90;;;;;;6185347;23;20317;-74
2021/06/07 01:54:50;;;;;;;4.47;4.07;;;13.30;99.90;;;;;;6185385;23;20421;-75
2021/06/07 01:57:16;;;;;;;4.50;4.05;;;13.30;99.90;;;;;;6185103;23;20013;-75
2021/06/07 01:59:42;;;;;;;4.80;4.30;;;13.40;99.90;;;;;;6185624;23;20007;-75
2021/06/07 02:02:08;;;;;;;3.97;3.50;;;13.40;99.90;;;;;;6185779;23;20044;-75
2021/06/07 02:04:34;;;;;;;5.40;4.30;;;13.40;99.90;;;;;;6185495;23;20452;-75
2021/06/07 02:07:01;;;;;;;5.25;4.60;;;13.40;99.90;;;;;;6185520;23;20005;-75
2021/06/07 02:09:28;;;;;;;4.63;4.22;;;13.50;99.90;;;;;;6185890;23;20027;-76
2021/06/07 02:11:53;;;;;;;5.07;4.55;;;13.40;99.90;;;;;;6185419;23;20039;-76
2021/06/07 02:14:19;;;;;;;4.72;4.22;;;13.40;99.90;;;;;;6185223;23;20020;-77
2021/06/07 02:16:45;;;;;;;5.38;4.28;;;13.40;99.90;;;;;;6185128;23;20016;-81
2021/06/07 02:19:11;;;;;;;5.40;4.40;;;13.40;99.90;;;;;;6185354;23;20001;-81
2021/06/07 02:21:38;;;;;;;5.32;4.53;;;13.40;99.90;;;;;;6185405;23;20005;-81
2021/06/07 02:24:05;;;;;;;5.40;4.50;;;13.30;99.90;;;;;;6185449;23;20060;-81
2021/06/07 02:26:32;;;;;;;5.32;4.50;;;13.30;99.90;;;;;;6185563;23;20001;-81
2021/06/07 02:29:01;;;;;;;5.20;4.63;;;13.40;99.90;;;;;;6185570;23;20068;-82
2021/06/07 02:31:27;;;;;;;5.63;4.65;;;13.40;99.90;;;;;;6185608;23;20012;-81
2021/06/07 02:33:55;;;;;;;5.82;4.85;;;13.40;99.90;;;;;;6159197;23;20071;-82
2021/06/07 02:36:23;;;;;;;5.13;4.32;;;13.40;99.90;;;;;;6185179;23;20005;-82
2021/06/07 02:38:49;;;;;;;5.35;4.85;;;13.50;99.90;;;;;;6159294;23;20433;-82
2021/06/07 02:41:17;;;;;;;6.15;4.75;;;13.60;99.90;;;;;;6185359;23;20052;-83
2021/06/07 02:43:43;;;;;;;8.93;4.90;;;13.70;99.90;;;;;;6185555;23;20433;-82
2021/06/07 02:46:08;;;;;;;4.60;3.97;;;13.90;99.90;;;;;;6184663;23;20017;-81
2021/06/07 02:48:36;;;;;;;10.77;4.50;;;14.20;99.90;;;;;;6185660;23;20005;-80
2021/06/07 02:51:03;;;;;;;11.93;4.82;;;14.60;99.90;;;;;;6185251;23;20008;-79
2021/06/07 02:53:29;;;;;;;5.53;4.75;;;14.80;99.90;;;;;;6185358;23;20001;-78
2021/06/07 02:55:54;;;;;;;4.80;4.35;;;15.00;99.90;;;;;;6184852;23;20332;-78
2021/06/07 02:58:22;;;;;;;4.53;4.13;;;15.10;99.90;;;;;;6185342;23;20005;-78
2021/06/07 03:00:51;;;;;;;6.75;4.13;;;15.20;99.90;;;;;;6184927;23;20032;-78
2021/06/07 03:03:18;;;;;;;6.70;4.22;;;15.30;99.90;;;;;;6184642;23;20012;-78
2021/06/07 03:05:45;;;;;;;5.88;4.13;;;15.40;99.90;;;;;;6185229;23;20008;-78
2021/06/07 03:08:13;;;;;;;5.22;4.60;;;15.50;99.90;;;;;;6184885;23;20001;-80
2021/06/07 03:10:40;;;;;;;8.07;4.43;;;15.60;99.90;;;;;;6184946;23;20024;-75
2021/06/07 03:13:06;;;;;;;4.85;4.35;;;15.70;99.90;;;;;;6184763;23;20314;-77
2021/06/07 03:15:32;;;;;;;6.32;4.00;;;15.80;99.90;;;;;;6185102;23;20001;-77
2021/06/07 03:17:58;;;;;;;7.72;4.47;;;16.10;99.90;;;;;;6184694;23;20016;-77
2021/06/07 03:20:27;;;;;;;8.00;4.47;;;16.40;99.90;;;;;;6184613;23;20059;-77
2021/06/07 03:22:55;;;;;;;4.65;4.00;;;16.80;99.90;;;;;;6184913;23;20051;-77
2021/06/07 03:25:22;;;;;;;12.02;4.53;;;17.20;95.40;;;;;;6184640;23;20001;-79
2021/06/07 03:27:48;;;;;;;5.60;3.70;;;17.50;93.50;;;;;;6185025;23;20336;-79
2021/06/07 03:30:16;;;;;;;6.13;4.10;;;17.70;92.20;;;;;;6184636;23;20001;-79
2021/06/07 03:32:42;;;;;;;3.47;3.17;;;17.90;90.10;;;;;;6185051;23;19997;-78
2021/06/07 03:35:10;;;;;;;4.80;3.88;;;18.00;85.90;;;;;;6184907;23;20020;-78
2021/06/07 03:37:37;;;;;;;6.32;4.30;;;18.00;86.30;;;;;;6184664;23;20013;-80
2021/06/07 03:40:18;;;;;;;4.55;3.47;;;17.90;83.70;;;;;;6158542;23;20009;-79
2021/06/07 03:42:46;;;;;;;4.75;4.22;;;17.80;84.90;;;;;;6184690;23;20076;-79
2021/06/07 03:45:13;;;;;;;4.28;3.65;;;17.80;90.10;;;;;;6184153;23;20017;-79
2021/06/07 03:47:38;;;;;;;6.68;3.38;;;17.70;89.40;;;;;;6184577;23;20001;-79
2021/06/07 03:50:09;;;;;;;5.07;3.90;;;17.60;89.10;;;;;;6185062;23;19997;-79
2021/06/07 03:52:36;;;;;;;4.35;3.55;;;17.60;90.30;;;;;;6184525;23;20051;-80
2021/06/07 03:55:05;;;;;;;4.20;3.80;;;17.70;85.10;;;;;;6184584;23;20385;-79
2021/06/07 03:57:31;;;;;;;3.85;3.47;;;17.80;80.30;;;;;;6184876;23;20063;-77
2021/06/07 03:59:56;;;;;;;4.32;3.92;;;17.90;80.80;;;;;;6184749;23;20377;-76
2021/06/07 04:02:23;;;;;;;5.85;3.80;;;17.90;82.50;;;;;;6184464;23;20032;-78
2021/06/07 04:04:48;;;;;;;6.32;3.95;;;17.80;84.40;;;;;;6184708;23;20425;-77
2021/06/07 04:07:14;;;;;;;6.18;3.58;;;17.70;81.90;;;;;;6184606;23;20004;-78
2021/06/07 04:09:42;;;;;;;8.40;3.85;;;17.70;82.80;;;;;;6185098;23;20027;-78
2021/06/07 04:12:11;;;;;;;5.93;4.35;;;17.60;86.60;;;;;;6184338;23;20008;-78
2021/06/07 04:14:37;;;;;;;6.90;4.23;;;17.40;90.10;;;;;;6158555;23;20005;-78
2021/06/07 04:17:03;;;;;;;7.32;4.07;;;17.40;89.10;;;;;;6184326;23;20020;-78
2021/06/07 04:19:29;;;;;;;4.30;3.53;;;17.40;88.90;;;;;;6184518;23;20045;-78
2021/06/07 04:21:54;;;;;;;6.45;4.18;;;17.40;91.00;;;;;;6184339;23;20429;-78
2021/06/07 04:24:20;;;;;;;6.65;3.78;;;17.40;91.70;;;;;;6184322;23;19997;-78
2021/06/07 04:26:46;;;;;;;6.13;4.35;;;17.40;89.90;;;;;;6184397;23;20005;-82
2021/06/07 04:29:12;;;;;;;7.40;4.18;;;17.50;84.00;;;;;;6184495;23;20008;-77
2021/06/07 04:31:38;;;;;;;5.63;4.30;;;17.70;80.00;;;;;;6184553;23;20004;-74
2021/06/07 04:34:03;;;;;;;4.60;3.92;;;18.00;77.80;;;;;;6184254;23;20433;-75
2021/06/07 04:36:29;;;;;;;4.75;3.70;;;18.20;74.30;;;;;;6166705;23;20068;-73
2021/06/07 04:38:55;;;;;;;5.85;3.90;;;18.50;74.10;;;;;;6204456;23;20429;-75
2021/06/07 04:41:21;;;;;;;6.82;3.80;;;18.80;73.30;;;;;;6199969;23;20040;-73
2021/06/07 04:43:46;;;;;;;5.82;4.32;;;19.40;71.70;;;;;;6201155;23;20004;-73
2021/06/07 04:46:13;;;;;;;8.32;4.60;;;19.90;68.70;;;;;;6195341;23;20013;-75
2021/06/07 04:48:39;;;;;;;14.80;5.13;;;20.20;67.40;;;;;;6185125;23;20009;-77
2021/06/07 04:51:05;;;;;;;7.82;4.20;;;20.50;70.20;;;;;;6184799;23;20376;-76
2021/06/07 04:53:31;;;;;;;4.95;4.05;;;20.80;66.20;;;;;;6184407;23;20036;-71
2021/06/07 04:55:57;;;;;;;5.50;4.22;;;21.10;63.10;;;;;;6184328;23;20005;-72
2021/06/07 04:58:28;;;;;;;6.65;4.43;;;21.50;65.30;;;;;;6184130;23;20012;-75
2021/06/07 05:01:00;;;;;;;5.72;4.57;;;21.80;62.10;;;;;;6184653;23;20080;-74
2021/06/07 05:03:27;;;;;;;4.70;3.88;;;22.10;61.90;;;;;;6184505;23;20076;-75
2021/06/07 05:05:58;;;;;;;6.80;3.58;;;22.40;61.90;;;;;;6184915;23;20091;-75
2021/06/07 05:08:26;;;;;;;5.07;3.30;;;22.70;58.50;;;;;;6180282;23;20005;-75
2021/06/07 05:10:52;;;;;;;9.05;3.88;;;22.90;58.00;;;;;;6199026;23;20032;-72
2021/06/07 05:13:18;;;;;;;5.35;3.60;;;23.00;57.20;;;;;;6193821;23;20025;-77
2021/06/07 05:15:44;;;;;;;4.53;3.97;;;23.20;56.50;;;;;;6197004;23;20446;-75
2021/06/07 05:18:10;;;;;;;5.80;3.95;;;23.50;56.70;;;;;;6196802;23;20032;-75
2021/06/07 05:20:37;;;;;;;6.95;4.07;;;23.70;55.40;;;;;;6159100;23;20064;-75
2021/06/07 05:23:03;;;;;;;6.22;3.40;;;23.80;55.20;;;;;;6184701;23;20001;-75
2021/06/07 05:25:31;;;;;;;4.75;3.65;;;24.10;54.70;;;;;;6184467;23;20008;-75
2021/06/07 05:27:58;;;;;;;4.78;3.50;;;24.20;54.00;;;;;;6185991;23;20005;-75
2021/06/07 05:30:27;;;;;;;4.50;4.10;;;24.20;54.20;;;;;;6160004;23;19997;-73
2021/06/07 05:32:53;;;;;;;5.60;3.50;;;24.30;53.70;;;;;;6185926;23;20001;-75
2021/06/07 05:35:20;;;;;;;4.20;3.70;;;24.40;53.80;;;;;;6185590;23;20005;-75
2021/06/07 05:37:47;;;;;;;4.35;3.20;;;24.60;54.00;;;;;;6185692;23;20009;-75
2021/06/07 05:40:14;;;;;;;9.20;4.15;;;24.80;53.50;;;;;;6185829;23;20008;-75
2021/06/07 05:42:41;;;;;;;3.58;3.22;;;25.20;53.60;;;;;;6185745;23;20008;-75
2021/06/07 05:45:09;;;;;;;4.03;3.38;;;25.30;52.70;;;;;;6159224;23;20017;-75
2021/06/07 05:47:36;;;;;;;4.20;3.40;;;25.40;53.00;;;;;;6185712;23;20377;-75
2021/06/07 05:50:04;;;;;;;5.38;3.42;;;25.50;53.40;;;;;;6185799;23;20001;-75
2021/06/07 05:52:30;;;;;;;4.35;3.30;;;25.60;52.00;;;;;;6185830;23;20009;-75
2021/06/07 05:54:56;;;;;;;7.00;3.88;;;25.50;52.10;;;;;;6185610;23;20436;-75
2021/06/07 05:57:22;;;;;;;4.65;3.70;;;25.60;51.90;;;;;;6185542;23;20088;-75
2021/06/07 05:59:47;;;;;;;4.97;3.35;;;25.40;51.80;;;;;;6186066;23;20005;-73
2021/06/07 06:02:14;;;;;;;4.55;3.50;;;25.30;52.00;;;;;;6185670;23;20001;-74
2021/06/07 06:04:40;;;;;;;3.85;3.28;;;25.40;52.10;;;;;;6185875;23;20011;-77
2021/06/07 06:07:07;;;;;;;5.68;3.50;;;25.40;51.70;;;;;;6185577;23;20376;-75
2021/06/07 06:09:33;;;;;;;7.53;3.50;;;25.40;51.80;;;;;;6185441;23;20005;-74
2021/06/07 06:11:59;;;;;;;4.68;3.45;;;25.40;52.00;;;;;;6159002;23;20036;-73
2021/06/07 06:14:26;;;;;;;3.75;3.35;;;25.30;52.10;;;;;;6185551;23;19998;-73
2021/06/07 06:16:54;;;;;;;19.70;3.85;;;25.40;52.20;;;;;;6185093;23;20036;-75
2021/06/07 06:19:22;;;;;;;4.03;3.20;;;25.40;51.70;;;;;;6185398;23;20024;-76
2021/06/07 06:21:48;;;;;;;4.47;3.45;;;25.60;51.20;;;;;;6185722;23;20016;-76
2021/06/07 06:24:14;;;;;;;5.05;3.92;;;25.60;51.40;;;;;;6185270;23;20001;-78
2021/06/07 06:26:40;;;;;;;7.43;3.35;;;25.60;51.50;;;;;;6185188;23;20032;-76
2021/06/07 06:29:07;;;;;;;4.05;2.67;;;25.80;51.80;;;;;;6185345;23;20017;-76
2021/06/07 06:31:34;;;;;;;3.83;2.95;;;25.60;52.80;;;;;;6185245;23;20005;-75
2021/06/07 06:34:00;;;;;;;2.60;2.40;;;25.60;53.70;;;;;;6185461;23;20020;-76
2021/06/07 06:36:27;;;;;;;2.92;2.63;;;25.60;54.30;;;;;;6185377;23;20041;-76
2021/06/07 06:38:53;;;;;;;8.65;2.95;;;25.30;55.50;;;;;;6184743;23;20039;-73
2021/06/07 06:41:19;;;;;;;2.38;2.17;;;25.30;55.10;;;;;;6185033;23;20047;-76
2021/06/07 06:43:45;;;;;;;7.55;3.00;;;25.20;55.30;;;;;;6184667;23;19997;-76
2021/06/07 06:46:10;;;;;;;4.40;2.80;;;25.00;56.00;;;;;;6184794;23;20085;-76
2021/06/07 06:48:36;;;;;;;3.80;3.25;;;24.50;56.90;;;;;;6185496;23;20028;-75
2021/06/07 06:51:04;;;;;;;10.35;3.05;;;24.50;57.50;;;;;;6185452;23;19997;-71
2021/06/07 06:53:29;;;;;;;7.03;3.10;;;24.20;57.90;;;;;;6185266;23;20005;-74
2021/06/07 06:55:55;;;;;;;6.30;3.50;;;23.90;58.60;;;;;;6185104;23;20028;-73
2021/06/07 06:58:22;;;;;;;6.32;3.33;;;23.50;59.70;;;;;;6184943;23;20009;-73
2021/06/07 07:00:48;;;;;;;3.25;2.80;;;23.40;60.40;;;;;;6185064;23;20001;-72
2021/06/07 07:03:21;;;;;;;7.13;3.42;;;23.40;60.90;;;;;;6158390;23;20524;-72
2021/06/07 07:05:48;;;;;;;6.78;3.10;;;23.50;60.40;;;;;;6185104;23;20119;-69
2021/06/07 07:08:14;;;;;;;405.08;26.17;;;23.40;60.40;;;;;;6158400;23;20334;-73
2021/06/07 07:10:44;;;;;;;13.82;3.53;;;23.50;61.30;;;;;;6184799;23;20052;-72
2021/06/07 07:13:10;;;;;;;4.82;3.10;;;23.80;61.40;;;;;;6185132;23;20012;-73
2021/06/07 07:15:36;;;;;;;4.75;2.80;;;23.80;60.10;;;;;;6184776;23;20009;-73
2021/06/07 07:18:03;;;;;;;3.30;3.00;;;23.60;61.20;;;;;;6184783;23;20012;-73
2021/06/07 07:20:29;;;;;;;7.35;2.80;;;23.70;61.30;;;;;;6184565;23;20068;-73
2021/06/07 07:22:55;;;;;;;4.80;2.70;;;23.80;61.30;;;;;;6184609;23;20024;-72
2021/06/07 07:25:21;;;;;;;6.35;3.05;;;23.80;61.40;;;;;;6184230;23;20325;-73
2021/06/07 07:27:47;;;;;;;3.78;2.80;;;23.70;61.20;;;;;;6182961;23;20001;-74
2021/06/07 07:30:17;;;;;;;8.75;3.17;;;23.30;62.40;;;;;;6184303;23;20008;-74
2021/06/07 07:32:43;;;;;;;;;;;22.90;63.50;;;;;;6184298;23;20001;-72
2021/06/07 07:35:10;;;;;;;8.70;3.70;;;22.60;65.00;;;;;;6184230;23;19923;-72
2021/06/07 07:37:36;;;;;;;8.70;3.13;;;22.50;65.60;;;;;;6183508;23;20444;-72
2021/06/07 07:40:03;;;;;;;4.07;2.80;;;22.50;65.70;;;;;;6184509;23;20039;-73
2021/06/07 07:42:29;;;;;;;3.45;3.10;;;22.70;65.90;;;;;;6184292;23;20001;-73
2021/06/07 07:44:55;;;;;;;6.07;3.00;;;22.70;65.50;;;;;;6184161;23;20020;-72
2021/06/07 07:47:21;;;;;;;3.72;3.42;;;22.80;65.70;;;;;;6184051;23;20005;-72
2021/06/07 07:49:47;;;;;;;5.38;3.20;;;22.60;65.70;;;;;;6184198;23;20002;-73
2021/06/07 07:52:14;;;;;;;3.67;3.17;;;22.60;66.70;;;;;;6184393;23;20088;-74
2021/06/07 07:54:40;;;;;;;6.75;3.58;;;22.60;66.40;;;;;;6184210;23;20001;-74
2021/06/07 07:57:07;;;;;;;4.13;3.22;;;22.50;66.90;;;;;;6184481;23;20055;-74
2021/06/07 07:59:33;;;;;;;3.67;3.13;;;22.60;67.10;;;;;;6182381;23;20001;-73
2021/06/07 08:02:00;;;;;;;5.82;3.00;;;22.50;67.10;;;;;;6183338;23;20009;-72
2021/06/07 08:04:26;;;;;;;6.10;3.08;;;22.40;67.50;;;;;;6182649;23;20001;-71
2021/06/07 08:06:52;;;;;;;12.73;3.38;;;22.40;68.30;;;;;;6184694;23;20517;-70
2021/06/07 08:09:17;;;;;;;5.60;3.40;;;22.60;68.50;;;;;;6184683;23;20005;-71
2021/06/07 08:11:43;;;;;;;7.47;3.17;;;22.70;67.20;;;;;;6184450;23;20005;-71
2021/06/07 08:14:09;;;;;;;5.95;2.95;;;22.60;67.20;;;;;;6184123;23;20001;-71
2021/06/07 08:16:35;;;;;;;3.17;2.60;;;22.60;67.30;;;;;;6184025;23;20333;-70
2021/06/07 08:19:01;;;;;;;8.00;2.78;;;22.70;67.30;;;;;;6184460;23;20383;-70
2021/06/07 08:21:26;;;;;;;4.90;2.60;;;22.80;66.50;;;;;;6183978;23;20302;-70
2021/06/07 08:23:52;;;;;;;11.73;3.33;;;22.70;65.40;;;;;;6184524;23;20083;-70
2021/06/07 08:26:18;;;;;;;4.38;2.50;;;22.70;66.30;;;;;;6183915;23;20009;-71
2021/06/07 08:28:44;;;;;;;9.50;2.50;;;22.70;65.10;;;;;;6184466;23;20005;-71
2021/06/07 08:31:09;;;;;;;2.45;2.25;;;22.80;64.80;;;;;;6184232;23;20333;-71
2021/06/07 08:33:36;;;;;;;11.30;3.28;;;22.80;64.50;;;;;;6183964;23;20001;-71
2021/06/07 08:36:05;;;;;;;4.20;2.85;;;22.80;64.90;;;;;;6183942;23;20001;-71
2021/06/07 08:38:32;;;;;;;3.63;2.55;;;22.70;64.70;;;;;;6184053;23;20005;-71
2021/06/07 08:40:58;;;;;;;5.90;2.75;;;22.80;64.00;;;;;;6184278;23;20001;-71
2021/06/07 08:43:24;;;;;;;3.22;2.65;;;22.80;63.70;;;;;;6183889;23;20109;-71
2021/06/07 08:45:51;;;;;;;2.55;2.35;;;22.70;64.50;;;;;;6183644;23;20092;-71
2021/06/07 08:48:17;;;;;;;3.17;2.53;;;22.60;64.50;;;;;;6184060;23;20023;-71
2021/06/07 08:50:45;;;;;;;5.00;2.70;;;22.40;65.10;;;;;;6183725;23;20084;-71
2021/06/07 08:53:13;;;;;;;2.83;2.53;;;22.40;66.40;;;;;;6183960;23;19997;-71
2021/06/07 08:55:39;;;;;;;4.85;2.95;;;22.30;66.00;;;;;;6183866;23;20005;-71
2021/06/07 08:58:06;;;;;;;7.85;3.10;;;22.30;66.30;;;;;;6183839;23;20017;-71
2021/06/07 09:00:38;;;;;;;2.97;2.65;;;22.20;66.80;;;;;;6184267;23;20005;-70
2021/06/07 09:03:14;;;;;;;3.00;2.70;;;22.30;67.50;;;;;;6159605;23;20038;-70
2021/06/07 09:05:44;;;;;;;3.63;3.30;;;22.40;67.10;;;;;;6186067;23;20001;-71
2021/06/07 09:08:11;;;;;;;;;;;22.40;66.90;;;;;;6186577;23;20005;-70
2021/06/07 09:10:43;;;;;;;5.43;2.92;;;22.40;66.90;;;;;;6185971;23;19978;-71
2021/06/07 09:13:10;;;;;;;7.85;3.03;;;22.30;67.00;;;;;;6185970;23;20390;-70
2021/06/07 09:15:43;;;;;;;2.92;2.60;;;22.20;67.20;;;;;;6159420;23;20009;-70
2021/06/07 09:18:14;;;;;;;12.82;3.08;;;22.20;67.10;;;;;;6185839;23;20100;-70
2021/06/07 09:20:42;;;;;;;5.57;3.05;;;22.20;67.90;;;;;;6186035;23;20055;-70
2021/06/07 09:23:13;;;;;;;20.63;3.20;;;22.30;69.20;;;;;;6185611;23;20005;-70
2021/06/07 09:25:45;;;;;;;7.88;2.85;;;22.30;68.50;;;;;;6185921;23;20390;-70
2021/06/07 09:28:20;;;;;;;7.22;2.80;;;22.20;68.40;;;;;;6186246;23;20324;-70
2021/06/07 09:30:45;;;;;;;6.15;3.30;;;22.10;67.80;;;;;;6186435;23;20008;-70
2021/06/07 09:33:37;;;;;;;3.22;2.67;;;22.00;68.90;;;;;;6185633;23;20005;-71
2021/06/07 09:36:27;;;;;;;4.47;2.67;;;22.00;67.50;;;;;;6185797;23;20020;-70
2021/06/07 09:38:59;;;;;;;12.85;2.90;;;22.00;67.70;;;;;;6185680;23;20015;-70
2021/06/07 09:41:31;;;;;;;4.90;2.65;;;21.90;68.00;;;;;;6185803;23;20001;-70
2021/06/07 09:43:59;;;;;;;17.90;4.50;;;21.90;68.20;;;;;;6185732;23;20079;-70
2021/06/07 09:46:28;;;;;;;5.13;2.55;;;21.90;69.00;;;;;;6185428;23;20020;-70
2021/06/07 09:49:12;;;;;;;17.80;3.40;;;21.90;68.70;;;;;;6185692;23;19997;-70
2021/06/07 09:51:39;;;;;;;21.08;3.75;;;21.90;68.90;;;;;;6185504;23;20005;-70
2021/06/07 09:54:05;;;;;;;10.57;3.42;;;21.90;68.80;;;;;;6185865;23;20005;-70
2021/06/07 09:56:46;;;;;;;4.45;3.00;;;21.80;69.40;;;;;;6185485;23;20417;-70
2021/06/07 09:59:29;;;;;;;4.43;3.33;;;21.70;69.40;;;;;;6185950;23;20005;-70
2021/06/07 10:01:57;;;;;;;7.63;3.83;;;21.60;70.10;;;;;;6159015;23;20008;-70
2021/06/07 10:05:01;;;;;;;8.18;3.38;;;21.70;70.70;;;;;;6185606;23;20028;-70
2021/06/07 10:07:27;;;;;;;6.00;3.05;;;21.70;70.30;;;;;;6185501;23;20071;-70
2021/06/07 10:10:11;;;;;;;8.48;4.68;;;21.60;70.50;;;;;;6185258;23;20008;-70
2021/06/07 10:12:39;;;;;;;14.10;3.90;;;21.60;70.40;;;;;;6184936;23;20028;-73
2021/06/07 10:15:08;;;;;;;12.23;3.75;;;21.60;70.60;;;;;;6185311;23;20440;-73
2021/06/07 10:17:34;;;;;;;11.02;4.20;;;21.60;70.70;;;;;;6184887;23;20013;-70
2021/06/07 10:22:39;;;;;;;8.68;3.72;;;21.50;71.80;;;;;;6195058;23;20053;-69
2021/06/07 10:25:07;;;;;;;4.68;3.75;;;21.50;72.40;;;;;;6185197;23;20315;-72
2021/06/07 10:27:33;;;;;;;9.50;3.35;;;21.30;72.10;;;;;;6184741;23;20005;-72
2021/06/07 10:29:59;;;;;;;7.95;3.33;;;21.30;72.90;;;;;;6185350;23;20009;-71
2021/06/07 10:32:29;;;;;;;6.78;3.63;;;21.30;72.30;;;;;;6185001;23;20382;-71
2021/06/07 10:35:02;;;;;;;18.17;6.70;;;21.20;72.50;;;;;;6185507;23;20001;-71
2021/06/07 10:37:31;;;;;;;11.73;5.72;;;21.10;73.60;;;;;;6184941;23;20008;-71
2021/06/07 10:40:24;;;;;;;3.75;3.22;;;21.10;74.40;;;;;;6185168;23;20080;-71
2021/06/07 10:43:03;;;;;;;6.50;3.90;;;21.00;73.60;;;;;;6154071;23;20040;-71
2021/06/07 10:45:32;;;;;;;6.95;3.92;;;20.80;73.70;;;;;;6184738;23;20021;-71
2021/06/07 10:47:58;;;;;;;9.55;4.10;;;20.70;75.00;;;;;;6185335;23;20009;-71
2021/06/07 10:50:27;;;;;;;7.22;4.00;;;20.70;76.00;;;;;;6185143;23;20025;-71
2021/06/07 10:52:57;;;;;;;10.23;4.13;;;20.80;75.80;;;;;;6185061;23;20375;-72
2021/06/07 10:55:28;;;;;;;;;;;20.80;75.40;;;;;;6190688;23;20007;-71
2021/06/07 10:58:03;;;;;;;16.15;4.80;;;20.60;76.60;;;;;;6202122;23;19916;-70
2021/06/07 11:00:42;;;;;;;10.63;4.75;;;20.60;76.80;;;;;;6188631;23;19997;-70
2021/06/07 11:03:16;;;;;;;11.23;4.70;;;20.50;76.30;;;;;;6186321;23;20001;-68
2021/06/07 11:05:43;;;;;;;9.85;3.70;;;20.40;76.30;;;;;;6185401;23;20001;-69
2021/06/07 11:08:17;;;;;;;8.30;4.50;;;20.40;77.00;;;;;;6185214;23;20001;-68
2021/06/07 11:11:03;;;;;;;7.38;3.78;;;20.60;77.00;;;;;;6184880;23;20009;-68
2021/06/07 11:13:33;;;;;;;8.32;4.22;;;20.90;76.30;;;;;;6184214;23;20425;-68
2021/06/07 11:16:02;;;;;;;;;;;21.20;75.10;;;;;;6185371;23;20012;-68
2021/06/07 11:18:33;;;;;;;9.23;4.43;;;21.10;74.40;;;;;;6184890;23;19911;-68
2021/06/07 11:21:21;;;;;;;16.27;4.55;;;21.00;74.60;;;;;;6184846;23;20005;-69
2021/06/07 11:23:46;;;;;;;13.15;4.60;;;20.80;74.50;;;;;;6158134;23;20016;-72
2021/06/07 11:26:18;;;;;;;8.02;4.53;;;20.70;74.80;;;;;;6184769;23;20076;-70
2021/06/07 11:29:04;;;;;;;7.68;4.30;;;20.60;74.90;;;;;;6184508;23;20076;-71
2021/06/07 11:31:33;;;;;;;14.98;5.03;;;20.50;76.00;;;;;;6156733;23;20438;-76
2021/06/07 11:34:01;;;;;;;12.55;4.28;;;20.50;75.60;;;;;;6183856;23;20080;-76
2021/06/07 11:36:42;;;;;;;11.30;4.60;;;20.50;75.60;;;;;;6184502;23;20028;-78
2021/06/07 11:39:23;;;;;;;14.95;5.18;;;20.40;75.70;;;;;;6184533;23;20009;-77
2021/06/07 11:41:58;;;;;;;29.48;5.60;;;20.40;76.40;;;;;;6184645;23;20384;-78
2021/06/07 11:44:45;;;;;;;6.07;4.50;;;20.40;76.80;;;;;;6184328;23;19998;-79
2021/06/07 11:47:12;;;;;;;11.38;5.03;;;20.30;77.40;;;;;;6184791;23;20017;-78
2021/06/07 11:49:56;;;;;;;6.25;4.15;;;20.30;77.10;;;;;;6184412;23;20005;-77
2021/06/07 11:52:35;;;;;;;8.60;4.18;;;20.30;77.40;;;;;;6184856;23;20059;-79
2021/06/07 11:55:35;;;;;;;8.43;4.78;;;20.30;77.80;;;;;;6184733;23;20337;-78
2021/06/07 11:58:34;;;;;;;6.70;4.97;;;20.10;78.60;;;;;;6184808;23;20017;-73
2021/06/07 12:01:01;;;;;;;11.07;4.82;;;20.10;81.00;;;;;;6104785;23;20013;-78
2021/06/07 12:03:29;;;;;;;11.55;4.68;;;20.30;79.10;;;;;;6184691;23;20005;-79
2021/06/07 12:05:56;;;;;;;7.03;4.85;;;20.50;79.50;;;;;;6184178;23;20005;-79
2021/06/07 12:08:24;;;;;;;7.70;5.00;;;20.70;78.00;;;;;;6184539;23;20012;-79
2021/06/07 12:11:00;;;;;;;5.80;4.80;;;20.40;77.80;;;;;;6184101;23;20005;-79
2021/06/07 12:13:30;;;;;;;11.50;5.28;;;20.10;79.50;;;;;;6184278;23;19997;-79
2021/06/07 12:16:04;;;;;;;5.63;4.90;;;20.00;80.10;;;;;;6184351;23;20005;-79
2021/06/07 12:18:49;;;;;;;7.78;4.97;;;19.90;80.70;;;;;;6184100;23;20334;-79
2021/06/07 12:21:17;;;;;;;8.30;5.00;;;19.80;81.40;;;;;;6184354;23;20055;-79
2021/06/07 12:24:05;;;;;;;8.38;5.63;;;19.70;82.50;;;;;;6184235;23;20009;-79
2021/06/07 12:29:36;;;;;;;8.80;5.40;;;19.70;81.40;;;;;;6184106;23;20031;-79
2021/06/07 12:32:18;;;;;;;10.55;5.43;;;19.70;82.30;;;;;;6184392;23;20385;-79
2021/06/07 12:35:13;;;;;;;9.50;5.82;;;19.70;81.60;;;;;;6184113;23;20380;-79
2021/06/07 12:37:47;;;;;;;8.90;5.60;;;19.70;81.30;;;;;;6184013;23;20403;-79
2021/06/07 12:40:24;;;;;;;7.10;5.32;;;19.50;82.20;;;;;;6184277;23;20001;-79
2021/06/07 12:43:06;;;;;;;11.65;5.13;;;19.50;81.40;;;;;;6183948;23;20005;-79
2021/06/07 12:45:34;;;;;;;5.97;5.22;;;19.30;81.80;;;;;;6183552;23;20042;-79
2021/06/07 12:48:26;;;;;;;10.68;5.93;;;19.20;82.20;;;;;;6184095;23;20004;-79
2021/06/07 12:50:57;;;;;;;7.82;5.45;;;19.30;82.70;;;;;;6184257;23;20013;-79
2021/06/07 12:53:28;;;;;;;9.57;5.60;;;19.30;82.50;;;;;;6184282;23;20001;-79
2021/06/07 12:55:57;;;;;;;7.80;5.20;;;19.40;83.10;;;;;;6184236;23;20009;-78
2021/06/07 12:58:29;;;;;;;10.77;5.65;;;19.50;82.90;;;;;;6184314;23;20084;-79
2021/06/07 13:01:05;;;;;;;9.77;5.90;;;19.50;82.10;;;;;;6183887;23;20005;-80
2021/06/07 13:03:33;;;;;;;7.63;6.07;;;19.50;82.70;;;;;;6184189;23;20031;-79
2021/06/07 13:06:11;;;;;;;11.07;5.15;;;19.50;83.40;;;;;;6184067;23;20322;-79
2021/06/07 13:09:07;;;;;;;10.98;6.32;;;19.60;83.50;;;;;;6183941;23;20001;-79
2021/06/07 13:11:33;;;;;;;9.23;6.30;;;19.60;83.40;;;;;;6184289;23;20092;-79
2021/06/07 13:14:01;;;;;;;9.35;6.22;;;19.60;82.50;;;;;;6183713;23;20004;-79
2021/06/07 13:16:29;;;;;;;7.43;5.90;;;19.50;83.50;;;;;;6157162;23;20055;-79
2021/06/07 13:19:03;;;;;;;11.60;6.72;;;19.50;84.00;;;;;;6183705;23;20076;-79
2021/06/07 13:21:31;;;;;;;9.63;6.10;;;19.60;84.40;;;;;;6183963;23;20283;-78
2021/06/07 13:23:57;;;;;;;9.15;6.32;;;19.50;84.60;;;;;;6183562;23;19997;-79
2021/06/07 13:26:28;;;;;;;8.25;6.20;;;19.50;85.30;;;;;;6184034;23;19997;-79
2021/06/07 13:29:14;;;;;;;7.07;6.38;;;19.60;85.20;;;;;;6183769;23;20087;-79
2021/06/07 13:32:05;;;;;;;12.18;6.70;;;19.50;86.10;;;;;;6183987;23;20496;-79
2021/06/07 13:35:02;;;;;;;8.32;6.70;;;19.50;86.50;;;;;;6183703;23;20006;-79